createdAt,value
2023-01-08T00:01:29.789Z,84.02
2023-01-08T00:03:57.603Z,83.49
2023-01-08T00:06:26.187Z,83.47
2023-01-08T00:08:54.017Z,83.25
2023-01-08T00:11:22.170Z,83.82
2023-01-08T00:13:51.521Z,83.98
2023-01-08T00:16:20.775Z,83.61
2023-01-08T00:18:49.049Z,83.72
2023-01-08T00:21:16.977Z,83.79
2023-01-08T00:23:50.368Z,83.54
2023-01-08T00:26:18.252Z,83.40
2023-01-08T00:28:47.311Z,83.57
2023-01-08T00:31:16.546Z,83.95
2023-01-08T00:33:44.472Z,83.39
2023-01-08T00:36:14.905Z,83.20
2023-01-08T00:38:43.477Z,83.44
2023-01-08T00:41:11.923Z,83.58
2023-01-08T00:43:39.960Z,83.37
2023-01-08T00:46:08.608Z,83.34
2023-01-08T00:48:38.840Z,83.26
2023-01-08T00:51:08.350Z,83.15
2023-01-08T00:53:37.893Z,83.10
2023-01-08T00:56:09.137Z,83.31
2023-01-08T00:58:37.177Z,83.58
2023-01-08T01:01:10.787Z,83.27
2023-01-08T01:03:40.386Z,83.54
2023-01-08T01:06:09.268Z,83.57
2023-01-08T01:09:01.953Z,83.09
2023-01-08T01:11:30.091Z,83.13
2023-01-08T01:13:58.499Z,83.33
2023-01-08T01:16:26.630Z,83.35
2023-01-08T01:18:57.566Z,83.11
2023-01-08T01:21:28.542Z,83.34
2023-01-08T01:23:57.446Z,83.30
2023-01-08T01:26:26.471Z,83.36
2023-01-08T01:28:57.373Z,83.28
2023-01-08T01:31:26.620Z,82.94
2023-01-08T01:33:55.914Z,83.17
2023-01-08T01:36:25.046Z,82.74
2023-01-08T01:38:54.953Z,83.12
2023-01-08T01:41:27.634Z,82.97
2023-01-08T01:43:56.480Z,82.98
2023-01-08T01:46:36.293Z,83.37
2023-01-08T01:49:10.193Z,83.14
2023-01-08T01:51:39.831Z,82.62
2023-01-08T01:54:10.962Z,82.87
2023-01-08T01:56:39.121Z,83.20
2023-01-08T01:59:07.276Z,83.06
2023-01-08T02:01:36.077Z,83.25
2023-01-08T02:04:06.802Z,83.07
2023-01-08T02:06:38.605Z,82.72
2023-01-08T02:09:15.493Z,83.00
2023-01-08T02:12:13.565Z,83.02
2023-01-08T02:14:48.567Z,83.08
2023-01-08T02:17:22.121Z,82.83
2023-01-08T02:19:58.413Z,82.90
2023-01-08T02:22:43.356Z,83.07
2023-01-08T02:25:17.350Z,82.83
2023-01-08T02:27:52.031Z,82.92
2023-01-08T02:30:20.578Z,82.68
2023-01-08T02:32:48.378Z,82.78
2023-01-08T02:35:19.293Z,82.75
2023-01-08T02:37:47.312Z,82.93
2023-01-08T02:40:31.697Z,83.01
2023-01-08T02:43:07.559Z,82.86
2023-01-08T02:45:44.833Z,82.83
2023-01-08T02:48:16.153Z,82.65
2023-01-08T02:50:48.177Z,82.86
2023-01-08T02:53:20.358Z,82.86
2023-01-08T02:55:52.701Z,82.70
2023-01-08T02:58:24.477Z,82.76
2023-01-08T03:00:53.551Z,82.53
2023-01-08T03:03:25.333Z,82.50
2023-01-08T03:05:56.701Z,82.79
2023-01-08T03:08:25.261Z,82.64
2023-01-08T03:10:57.965Z,82.77
2023-01-08T03:13:32.588Z,82.72
2023-01-08T03:16:05.428Z,82.85
2023-01-08T03:18:38.967Z,82.78
2023-01-08T03:21:07.911Z,82.72
2023-01-08T03:23:38.803Z,82.67
2023-01-08T03:26:08.099Z,82.62
2023-01-08T03:28:42.826Z,82.51
2023-01-08T03:31:12.608Z,82.54
2023-01-08T03:33:41.512Z,82.56
2023-01-08T03:36:13.218Z,82.55
2023-01-08T03:38:46.327Z,82.75
2023-01-08T03:41:19.521Z,82.70
2023-01-08T03:43:49.122Z,82.63
2023-01-08T03:46:21.712Z,82.73
2023-01-08T03:48:54.310Z,82.53
2023-01-08T03:51:22.345Z,82.48
2023-01-08T03:53:51.855Z,82.57
2023-01-08T03:56:20.898Z,82.70
2023-01-08T03:58:50.139Z,82.40
2023-01-08T04:01:18.322Z,82.55
2023-01-08T04:03:46.193Z,82.56
2023-01-08T04:06:14.055Z,82.49
2023-01-08T04:08:45.661Z,82.53
2023-01-08T04:11:13.577Z,82.46
2023-01-08T04:16:59.315Z,82.44
2023-01-08T04:19:27.777Z,82.48
2023-01-08T04:21:55.512Z,82.45
2023-01-08T04:24:24.298Z,82.42
2023-01-08T04:26:52.055Z,82.34
2023-01-08T04:29:20.070Z,82.55
2023-01-08T04:31:47.837Z,82.27
2023-01-08T04:34:17.040Z,82.39
2023-01-08T04:36:44.782Z,82.31
2023-01-08T04:39:13.042Z,82.44
2023-01-08T04:41:40.922Z,82.42
2023-01-08T04:44:10.323Z,82.45
2023-01-08T04:46:38.180Z,82.37
2023-01-08T04:49:06.033Z,82.51
2023-01-08T04:51:35.275Z,82.31
2023-01-08T04:54:03.040Z,82.42
2023-01-08T04:56:31.588Z,82.62
2023-01-08T04:58:59.397Z,82.24
2023-01-08T05:01:28.973Z,82.38
2023-01-08T05:03:59.603Z,82.36
2023-01-08T05:06:29.279Z,82.33
2023-01-08T05:08:58.994Z,82.51
2023-01-08T05:11:27.222Z,82.50
2023-01-08T05:13:56.478Z,82.47
2023-01-08T05:16:24.596Z,82.34
2023-01-08T05:18:52.387Z,82.25
2023-01-08T05:21:20.234Z,82.20
2023-01-08T05:23:49.036Z,82.26
2023-01-08T05:26:19.277Z,82.32
2023-01-08T05:28:47.365Z,82.22
2023-01-08T05:31:15.947Z,82.24
2023-01-08T05:33:43.812Z,82.34
2023-01-08T05:36:13.384Z,82.24
2023-01-08T05:38:41.633Z,82.15
2023-01-08T05:41:11.089Z,82.24
2023-01-08T05:43:40.231Z,82.16
2023-01-08T05:46:08.179Z,82.12
2023-01-08T05:48:37.441Z,82.24
2023-01-08T05:51:05.997Z,82.19
2023-01-08T05:53:34.312Z,82.33
2023-01-08T05:56:03.308Z,82.14
2023-01-08T05:58:31.281Z,82.11
2023-01-08T06:01:05.228Z,82.25
2023-01-08T06:03:33.092Z,82.17
2023-01-08T06:06:01.305Z,82.29
2023-01-08T06:08:30.092Z,82.20
2023-01-08T06:11:00.730Z,82.01
2023-01-08T06:13:28.857Z,82.09
2023-01-08T06:15:59.344Z,82.51
2023-01-08T06:18:28.805Z,81.98
2023-01-08T06:20:57.116Z,82.10
2023-01-08T06:23:25.268Z,82.38
2023-01-08T06:25:54.710Z,82.68
2023-01-08T06:28:23.301Z,82.42
2023-01-08T06:30:51.411Z,82.29
2023-01-08T06:33:21.361Z,82.23
2023-01-08T06:35:51.132Z,82.13
2023-01-08T06:38:19.320Z,82.18
2023-01-08T06:40:48.784Z,82.52
2023-01-08T06:43:17.693Z,82.35
2023-01-08T06:45:45.661Z,82.42
2023-01-08T06:48:13.450Z,82.46
2023-01-08T06:50:41.367Z,82.74
2023-01-08T06:53:10.539Z,82.42
2023-01-08T06:55:38.644Z,82.70
2023-01-08T06:58:06.467Z,82.42
2023-01-08T07:00:34.498Z,82.25
2023-01-08T07:03:02.505Z,82.71
2023-01-08T07:05:31.544Z,82.76
2023-01-08T07:07:59.526Z,82.85
2023-01-08T07:10:31.214Z,82.71
2023-01-08T07:12:59.658Z,82.75
2023-01-08T07:15:27.410Z,82.32
2023-01-08T07:17:55.302Z,82.66
2023-01-08T07:20:23.077Z,82.78
2023-01-08T07:22:51.057Z,82.89
2023-01-08T07:25:18.806Z,83.00
2023-01-08T07:27:50.348Z,82.54
2023-01-08T07:30:43.235Z,83.19
2023-01-08T07:33:11.502Z,83.10
2023-01-08T07:35:39.320Z,82.79
2023-01-08T07:38:07.179Z,83.11
2023-01-08T07:40:35.023Z,83.09
2023-01-08T07:43:06.681Z,83.13
2023-01-08T07:45:34.561Z,83.11
2023-01-08T07:48:02.337Z,83.16
2023-01-08T07:50:30.247Z,82.85
2023-01-08T07:52:59.343Z,82.97
2023-01-08T07:55:27.876Z,83.38
2023-01-08T07:57:56.028Z,83.14
2023-01-08T08:00:25.262Z,83.32
2023-01-08T08:02:53.874Z,83.36
2023-01-08T08:05:21.787Z,82.70
2023-01-08T08:07:49.529Z,83.10
2023-01-08T08:10:17.576Z,83.30
2023-01-08T08:12:46.129Z,83.34
2023-01-08T08:15:14.059Z,83.37
2023-01-08T08:17:45.899Z,83.52
2023-01-08T08:20:13.811Z,82.88
2023-01-08T08:22:41.747Z,83.53
2023-01-08T08:25:10.208Z,83.65
2023-01-08T08:27:38.264Z,83.64
2023-01-08T08:30:07.174Z,83.29
2023-01-08T08:32:35.366Z,83.39
2023-01-08T08:35:05.173Z,83.26
2023-01-08T08:37:33.058Z,83.85
2023-01-08T08:40:00.851Z,83.37
2023-01-08T08:42:28.714Z,83.25
2023-01-08T08:44:56.516Z,83.12
2023-01-08T08:47:24.350Z,83.63
2023-01-08T08:49:52.119Z,83.52
2023-01-08T08:52:21.523Z,83.59
2023-01-08T08:54:49.304Z,84.03
2023-01-08T08:57:17.224Z,83.52
2023-01-08T08:59:45.124Z,83.50
2023-01-08T09:02:13.335Z,83.85
2023-01-08T09:04:41.405Z,84.16
2023-01-08T09:07:09.298Z,83.56
2023-01-08T09:09:38.572Z,83.49
2023-01-08T09:12:08.282Z,84.07
2023-01-08T09:14:36.122Z,83.48
2023-01-08T09:17:03.918Z,83.85
2023-01-08T09:19:31.973Z,84.20
2023-01-08T09:21:59.782Z,84.05
2023-01-08T09:24:27.707Z,83.98
2023-01-08T09:26:56.786Z,83.94
2023-01-08T09:29:24.634Z,84.10
2023-01-08T09:31:55.682Z,83.82
2023-01-08T09:34:23.586Z,84.19
2023-01-08T09:36:52.275Z,84.07
2023-01-08T09:39:20.201Z,83.86
2023-01-08T09:41:49.007Z,84.05
2023-01-08T09:44:21.357Z,84.18
2023-01-08T09:46:49.780Z,84.17
2023-01-08T09:49:26.348Z,84.40
2023-01-08T09:51:54.603Z,84.33
2023-01-08T09:54:25.102Z,84.30
2023-01-08T09:56:54.139Z,84.45
2023-01-08T09:59:23.448Z,84.35
2023-01-08T10:01:53.430Z,84.28
2023-01-08T10:04:23.870Z,84.20
2023-01-08T10:06:55.429Z,84.46
2023-01-08T11:16:49.503Z,84.85
2023-01-08T11:19:20.380Z,85.03
2023-01-08T11:21:56.748Z,84.79
2023-01-08T11:24:29.451Z,84.78
2023-01-08T11:27:05.766Z,84.98
2023-01-08T11:29:42.168Z,85.11
2023-01-08T11:32:30.211Z,85.19
2023-01-08T11:35:02.227Z,84.86
2023-01-08T11:37:34.647Z,85.00
2023-01-08T11:40:04.511Z,85.32
2023-01-08T11:42:53.083Z,84.90
2023-01-08T11:45:31.377Z,85.19
2023-01-08T11:48:18.249Z,85.09
2023-01-08T11:51:00.367Z,85.10
2023-01-08T11:53:38.553Z,85.30
2023-01-08T11:56:21.265Z,85.35
2023-01-08T11:59:07.065Z,85.04
2023-01-08T12:01:48.387Z,85.20
2023-01-08T12:04:33.706Z,85.21
2023-01-08T12:07:10.927Z,85.17
2023-01-08T12:09:43.630Z,85.16
2023-01-08T12:12:26.245Z,85.27
2023-01-08T12:15:06.535Z,85.20
2023-01-08T12:18:00.739Z,85.47
2023-01-08T12:20:37.780Z,85.25
2023-01-08T12:23:30.012Z,85.26
2023-01-08T12:26:20.803Z,85.02
2023-01-08T12:29:19.389Z,85.37
2023-01-08T12:32:14.408Z,85.50
2023-01-08T12:34:54.354Z,85.19
2023-01-08T12:37:27.547Z,85.47
2023-01-08T12:40:02.235Z,85.26
2023-01-08T12:42:33.215Z,85.60
2023-01-08T12:45:04.611Z,85.35
2023-01-08T12:47:38.202Z,85.49
2023-01-08T12:50:21.809Z,85.36
2023-01-08T12:52:59.845Z,85.45
2023-01-08T12:55:43.578Z,85.46
2023-01-08T12:58:22.475Z,85.55
2023-01-08T13:01:00.047Z,85.31
2023-01-08T13:03:30.879Z,85.59
2023-01-08T13:06:11.013Z,85.50
2023-01-08T13:08:41.223Z,85.60
2023-01-08T13:11:09.765Z,85.52
2023-01-08T13:13:41.680Z,85.67
2023-01-08T13:16:21.469Z,85.44
2023-01-08T13:18:55.021Z,85.85
2023-01-08T13:21:31.942Z,85.59
2023-01-08T13:24:06.375Z,85.40
2023-01-08T13:26:36.772Z,85.58
2023-01-08T13:29:23.581Z,85.54
2023-01-08T13:31:53.465Z,85.78
2023-01-08T13:34:34.530Z,85.55
2023-01-08T13:37:02.391Z,85.47
2023-01-08T13:39:36.157Z,85.53
2023-01-08T13:42:20.932Z,85.44
2023-01-08T13:44:50.977Z,85.57
2023-01-08T13:47:28.764Z,85.59
2023-01-08T13:49:57.904Z,85.72
2023-01-08T13:52:36.044Z,85.66
2023-01-08T13:55:06.570Z,85.47
2023-01-08T13:57:40.858Z,85.42
2023-01-08T14:00:18.917Z,85.51
2023-01-08T14:02:50.718Z,85.41
2023-01-08T14:05:28.286Z,85.49
2023-01-08T14:07:56.625Z,85.57
2023-01-08T14:10:26.365Z,85.48
2023-01-08T14:12:55.962Z,85.50
2023-01-08T14:15:26.766Z,85.56
2023-01-08T14:17:57.970Z,85.61
2023-01-08T14:20:31.933Z,85.39
2023-01-08T14:23:01.137Z,85.52
2023-01-08T14:25:30.293Z,85.50
2023-01-08T14:28:03.599Z,85.45
2023-01-08T14:30:32.123Z,85.12
2023-01-08T14:33:02.450Z,85.52
2023-01-08T14:35:34.603Z,85.32
2023-01-08T14:38:05.613Z,85.25
2023-01-08T14:40:38.346Z,85.20
2023-01-08T14:43:09.272Z,85.27
2023-01-08T14:45:38.789Z,85.28
2023-01-08T14:48:14.851Z,85.37
2023-01-08T14:50:45.102Z,85.35
2023-01-08T14:53:21.722Z,85.25
2023-01-08T14:55:52.363Z,85.50
2023-01-08T14:58:25.489Z,85.33
2023-01-08T15:00:57.247Z,85.38
2023-01-08T15:03:33.022Z,85.38
2023-01-08T15:06:01.372Z,85.37
2023-01-08T15:08:35.160Z,85.31
2023-01-08T15:11:04.907Z,85.17
2023-01-08T15:13:35.103Z,85.08
2023-01-08T15:16:08.792Z,85.36
2023-01-08T15:18:44.505Z,85.48
2023-01-08T15:21:17.942Z,84.97
2023-01-08T15:23:49.786Z,85.18
2023-01-08T15:26:18.596Z,85.22
2023-01-08T15:28:50.921Z,85.11
2023-01-08T15:31:30.165Z,85.14
2023-01-08T15:34:01.235Z,84.97
2023-01-08T15:36:29.130Z,85.14
2023-01-08T15:38:57.062Z,85.11
2023-01-08T15:41:42.721Z,85.09
2023-01-08T15:44:13.383Z,85.21
2023-01-08T15:46:41.263Z,85.15
2023-01-08T15:49:10.658Z,84.98
2023-01-08T15:51:43.031Z,85.29
2023-01-08T15:54:12.695Z,84.86
2023-01-08T15:56:41.100Z,85.25
2023-01-08T15:59:09.056Z,85.20
2023-01-08T16:01:37.042Z,85.28
2023-01-08T16:04:05.250Z,85.05
2023-01-08T16:06:36.045Z,85.32
2023-01-08T16:09:04.370Z,84.93
2023-01-08T16:11:32.247Z,84.99
2023-01-08T16:14:00.118Z,84.87
2023-01-08T16:16:27.981Z,84.81
2023-01-08T16:18:55.908Z,85.35
2023-01-08T16:21:23.755Z,85.02
2023-01-08T16:23:53.623Z,85.36
2023-01-08T16:26:21.640Z,85.38
2023-01-08T16:28:49.440Z,85.08
2023-01-08T16:31:17.488Z,84.76
2023-01-08T16:33:45.466Z,84.92
2023-01-08T16:36:13.378Z,84.86
2023-01-08T16:38:41.212Z,84.86
2023-01-08T16:41:10.727Z,84.94
2023-01-08T16:44:03.965Z,85.33
2023-01-08T16:46:31.811Z,84.84
2023-01-08T16:48:59.709Z,85.06
2023-01-08T16:51:27.873Z,85.00
2023-01-08T16:53:55.886Z,85.17
2023-01-08T16:56:25.206Z,85.24
2023-01-08T16:58:53.050Z,84.89
2023-01-08T17:01:21.168Z,84.82
2023-01-08T17:03:49.087Z,85.17
2023-01-08T17:06:17.061Z,85.00
2023-01-08T17:08:44.985Z,84.92
2023-01-08T17:11:14.640Z,84.83
2023-01-08T17:13:44.630Z,85.28
2023-01-08T17:16:17.037Z,84.84
2023-01-08T17:18:45.469Z,84.57
2023-01-08T17:21:15.181Z,85.04
2023-01-08T17:23:43.144Z,84.85
2023-01-08T17:26:14.274Z,84.97
2023-01-08T17:28:42.288Z,85.16
2023-01-08T17:31:13.803Z,84.92
2023-01-08T17:33:42.085Z,84.74
2023-01-08T17:36:13.311Z,85.03
2023-01-08T17:38:42.836Z,84.67
2023-01-08T17:41:31.410Z,85.29
2023-01-08T17:43:59.349Z,84.77
2023-01-08T17:46:28.887Z,85.04
2023-01-08T17:48:56.767Z,84.74
2023-01-08T17:51:24.572Z,85.02
2023-01-08T17:53:52.475Z,85.37
2023-01-08T17:56:20.284Z,85.23
2023-01-08T17:58:49.997Z,85.42
2023-01-08T18:01:19.127Z,84.96
2023-01-08T18:03:48.522Z,84.61
2023-01-08T18:06:16.558Z,84.59
2023-01-08T18:08:44.446Z,84.91
2023-01-08T18:11:12.502Z,85.02
2023-01-08T18:13:40.578Z,85.11
2023-01-08T18:16:10.753Z,84.80
2023-01-08T18:18:39.702Z,85.37
2023-01-08T18:21:09.169Z,85.17
2023-01-08T18:24:02.689Z,84.86
2023-01-08T18:26:30.582Z,85.08
2023-01-08T18:28:58.347Z,85.12
2023-01-08T18:31:26.273Z,85.42
2023-01-08T18:33:54.159Z,85.46
2023-01-08T18:36:23.668Z,84.71
2023-01-08T18:38:51.756Z,85.04
2023-01-08T18:41:39.223Z,85.05
2023-01-08T18:44:08.940Z,84.83
2023-01-08T18:46:37.566Z,84.97
2023-01-08T18:49:05.635Z,84.81
2023-01-08T18:51:34.910Z,85.11
2023-01-08T18:54:04.274Z,85.09
2023-01-08T18:56:34.524Z,84.63
2023-01-08T18:59:02.683Z,84.64
2023-01-08T19:01:30.693Z,84.78
2023-01-08T19:03:58.638Z,85.46
2023-01-08T19:06:26.682Z,84.91
2023-01-08T19:09:21.269Z,85.21
2023-01-08T19:11:49.295Z,84.60
2023-01-08T19:14:17.145Z,85.09
2023-01-08T19:16:51.119Z,84.76
2023-01-08T19:19:19.683Z,85.24
2023-01-08T19:21:47.539Z,85.29
2023-01-08T19:24:15.417Z,84.81
2023-01-08T19:26:44.643Z,85.44
2023-01-08T19:29:12.629Z,85.00
2023-01-08T19:31:40.531Z,85.06
2023-01-08T19:34:08.387Z,84.69
2023-01-08T19:36:36.342Z,85.21
2023-01-08T19:39:05.310Z,85.27
2023-01-08T19:41:50.503Z,85.20
2023-01-08T19:44:19.809Z,84.75
2023-01-08T19:46:47.653Z,85.47
2023-01-08T19:49:15.527Z,84.79
2023-01-08T19:51:43.368Z,84.67
2023-01-08T19:54:12.656Z,85.06
2023-01-08T19:56:40.860Z,85.01
2023-01-08T19:59:08.646Z,84.92
2023-01-08T20:01:38.954Z,84.61
2023-01-08T20:04:07.007Z,84.97
2023-01-08T20:06:35.001Z,85.38
2023-01-08T20:09:03.490Z,84.50
2023-01-08T20:11:31.446Z,85.38
2023-01-08T20:14:00.484Z,85.81
2023-01-08T20:16:29.723Z,85.37
2023-01-08T20:19:02.026Z,85.16
2023-01-08T20:21:30.145Z,85.15
2023-01-08T20:24:00.557Z,85.61
2023-01-08T20:26:53.972Z,85.48
2023-01-08T20:29:21.799Z,84.79
2023-01-08T20:31:56.790Z,84.88
2023-01-08T20:34:26.389Z,85.32
2023-01-08T20:36:54.241Z,84.77
2023-01-08T20:39:22.103Z,84.98
2023-01-08T20:41:55.592Z,84.79
2023-01-08T20:44:32.158Z,85.31
2023-01-08T20:47:00.373Z,85.06
2023-01-08T20:49:29.841Z,85.00
2023-01-08T20:51:59.632Z,84.66
2023-01-08T20:54:28.782Z,84.78
2023-01-08T20:56:57.066Z,85.37
2023-01-08T20:59:25.042Z,85.02
2023-01-08T21:01:53.427Z,84.89
2023-01-08T21:04:21.324Z,85.50
2023-01-08T21:06:50.721Z,85.25
2023-01-08T21:09:18.573Z,84.99
2023-01-08T21:11:46.575Z,85.38
2023-01-08T21:14:14.725Z,84.99
2023-01-08T21:16:42.640Z,85.33
2023-01-08T21:19:10.899Z,85.52
2023-01-08T21:21:40.683Z,85.02
2023-01-08T21:24:13.355Z,84.84
2023-01-08T21:26:41.582Z,85.20
2023-01-08T21:29:09.986Z,85.60
2023-01-08T21:31:38.890Z,85.67
2023-01-08T21:34:08.616Z,85.17
2023-01-08T21:36:37.006Z,85.47
2023-01-08T21:39:05.025Z,85.58
2023-01-08T21:41:52.068Z,84.90
2023-01-08T21:44:39.371Z,85.24
2023-01-08T21:47:09.745Z,84.94
2023-01-08T21:49:37.867Z,85.70
2023-01-08T21:52:24.395Z,85.69
2023-01-08T21:54:52.894Z,84.90
2023-01-08T21:57:22.159Z,85.09
2023-01-08T21:59:50.720Z,85.75
2023-01-08T22:02:20.042Z,85.85
2023-01-08T22:04:48.344Z,85.04
2023-01-08T22:07:17.233Z,85.42
2023-01-08T22:09:45.381Z,85.00
2023-01-08T22:12:14.138Z,85.63
2023-01-08T22:14:43.359Z,85.05
2023-01-08T22:17:11.549Z,85.22
2023-01-08T22:19:40.306Z,85.76
2023-01-08T22:22:11.012Z,85.45
2023-01-08T22:24:39.557Z,85.34
2023-01-08T22:27:08.130Z,84.85
2023-01-08T22:29:36.266Z,85.06
2023-01-08T22:32:06.267Z,85.06
2023-01-08T22:34:35.441Z,85.01
2023-01-08T22:37:03.320Z,85.27
2023-01-08T22:39:31.228Z,84.95
2023-01-08T22:41:59.267Z,85.03
2023-01-08T22:44:27.036Z,85.29
2023-01-08T22:46:54.952Z,85.37
2023-01-08T22:49:24.128Z,85.03
2023-01-08T22:51:52.161Z,85.79
2023-01-08T22:54:19.965Z,85.61
2023-01-08T22:56:47.763Z,85.52
2023-01-08T22:59:15.686Z,85.11
2023-01-08T23:01:43.507Z,85.45
2023-01-08T23:06:36.407Z,85.33
2023-01-08T23:09:04.581Z,85.13
2023-01-08T23:11:32.359Z,85.21
2023-01-08T23:14:01.275Z,85.57
2023-01-08T23:16:29.162Z,85.76
2023-01-08T23:18:57.591Z,84.99
2023-01-08T23:21:27.254Z,85.61
2023-01-08T23:23:56.721Z,85.14
2023-01-08T23:26:26.901Z,85.64
2023-01-08T23:28:55.911Z,85.51
2023-01-08T23:31:27.205Z,85.63
2023-01-08T23:33:55.461Z,85.51
2023-01-08T23:36:23.615Z,85.78
2023-01-08T23:38:54.290Z,85.26
2023-01-08T23:41:31.709Z,85.25
2023-01-08T23:44:02.065Z,85.42
2023-01-08T23:46:30.071Z,85.71
2023-01-08T23:48:58.320Z,85.27
2023-01-08T23:51:27.113Z,85.18
2023-01-08T23:54:20.444Z,84.81
2023-01-08T23:56:50.341Z,85.76
2023-01-08T23:59:18.139Z,85.79
